createdAt,value
2023-05-25T00:01:02.719Z,99113.88
2023-05-25T00:03:31.457Z,99116.53
2023-05-25T00:05:58.826Z,99120.06
2023-05-25T00:08:25.359Z,99127.97
2023-05-25T00:10:51.906Z,99123.56
2023-05-25T00:13:18.466Z,99131.53
2023-05-25T00:15:45.197Z,99122.00
2023-05-25T00:18:13.088Z,99124.84
2023-05-25T00:20:39.836Z,99123.59
2023-05-25T00:23:06.491Z,99134.53
2023-05-25T00:25:33.005Z,99143.69
2023-05-25T00:27:59.537Z,99143.28
2023-05-25T00:30:26.151Z,99133.34
2023-05-25T00:32:54.065Z,99143.91
2023-05-25T00:35:20.694Z,99143.34
2023-05-25T00:37:47.626Z,99137.34
2023-05-25T00:40:15.529Z,99146.41
2023-05-25T00:42:42.048Z,99141.75
2023-05-25T00:45:08.749Z,99142.69
2023-05-25T00:47:35.304Z,99143.06
2023-05-25T00:50:02.148Z,99141.38
2023-05-25T00:52:28.686Z,99142.13
2023-05-25T00:54:55.436Z,99142.38
2023-05-25T00:57:23.337Z,99144.91
2023-05-25T00:59:51.925Z,99138.44
2023-05-25T01:02:19.323Z,99137.84
2023-05-25T01:04:54.944Z,99138.88
2023-05-25T01:07:23.277Z,99137.53
2023-05-25T01:09:50.848Z,99142.63
2023-05-25T01:12:17.387Z,99147.22
2023-05-25T01:14:43.907Z,99138.88
2023-05-25T01:17:10.481Z,99137.44
2023-05-25T01:19:41.007Z,99131.78
2023-05-25T01:22:40.669Z,99131.50
2023-05-25T01:25:13.781Z,99132.41
2023-05-25T01:27:44.269Z,99130.97
2023-05-25T01:30:12.659Z,99132.28
2023-05-25T01:32:39.273Z,99130.44
2023-05-25T01:35:06.040Z,99131.47
2023-05-25T01:37:33.085Z,99126.75
2023-05-25T01:39:59.591Z,99124.16
2023-05-25T01:42:26.165Z,99121.75
2023-05-25T01:44:52.768Z,99117.13
2023-05-25T01:47:22.267Z,99116.38
2023-05-25T01:50:09.898Z,99115.56
2023-05-25T01:52:36.904Z,99120.25
2023-05-25T01:55:06.289Z,99117.56
2023-05-25T01:57:37.497Z,99118.66
2023-05-25T02:00:04.807Z,99102.50
2023-05-25T02:02:31.561Z,99114.19
2023-05-25T02:04:58.366Z,99119.53
2023-05-25T02:07:24.899Z,99115.75
2023-05-25T02:09:51.481Z,99118.50
2023-05-25T02:12:18.014Z,99119.59
2023-05-25T02:14:46.016Z,99124.72
2023-05-25T02:17:12.912Z,99126.44
2023-05-25T02:19:39.449Z,99124.09
2023-05-25T02:22:06.068Z,99126.34
2023-05-25T02:24:34.741Z,99125.41
2023-05-25T02:27:01.862Z,99127.31
2023-05-25T02:29:28.400Z,99121.13
2023-05-25T02:31:54.920Z,99117.50
2023-05-25T02:34:21.886Z,99122.25
2023-05-25T02:36:48.460Z,99119.16
2023-05-25T02:39:14.975Z,99124.03
2023-05-25T02:41:41.492Z,99110.84
2023-05-25T02:44:08.691Z,99120.97
2023-05-25T02:46:35.228Z,99125.16
2023-05-25T02:49:01.842Z,99121.97
2023-05-25T02:51:28.537Z,99125.53
2023-05-25T02:53:55.117Z,99123.09
2023-05-25T02:56:24.495Z,99124.72
2023-05-25T02:58:51.676Z,99127.22
2023-05-25T03:01:19.212Z,99131.22
2023-05-25T03:03:48.085Z,99132.38
2023-05-25T03:06:14.665Z,99139.38
2023-05-25T03:08:41.633Z,99138.47
2023-05-25T03:11:08.198Z,99140.00
2023-05-25T03:13:35.421Z,99130.44
2023-05-25T03:16:01.934Z,99133.19
2023-05-25T03:18:28.500Z,99132.03
2023-05-25T03:20:55.053Z,99138.16
2023-05-25T03:23:21.638Z,99140.31
2023-05-25T03:25:48.156Z,99151.00
2023-05-25T03:28:14.742Z,99146.38
2023-05-25T03:30:41.414Z,99144.34
2023-05-25T03:33:07.958Z,99156.56
2023-05-25T03:35:34.569Z,99152.78
2023-05-25T03:38:01.080Z,99155.06
2023-05-25T03:40:27.601Z,99163.66
2023-05-25T03:42:54.632Z,99161.81
2023-05-25T03:45:21.158Z,99174.06
2023-05-25T03:47:48.108Z,99177.31
2023-05-25T03:50:14.693Z,99176.72
2023-05-25T03:52:41.205Z,99169.16
2023-05-25T03:55:08.109Z,99175.22
2023-05-25T03:57:34.676Z,99175.06
2023-05-25T04:00:01.206Z,99170.59
2023-05-25T04:02:27.818Z,99164.47
2023-05-25T04:04:54.485Z,99164.63
2023-05-25T04:07:21.059Z,99173.53
2023-05-25T04:09:47.567Z,99176.53
2023-05-25T04:12:14.094Z,99173.47
2023-05-25T04:14:42.377Z,99172.63
2023-05-25T04:17:08.910Z,99166.81
2023-05-25T04:19:35.590Z,99166.16
2023-05-25T04:22:02.141Z,99161.31
2023-05-25T04:24:28.668Z,99157.72
2023-05-25T04:26:56.624Z,99155.94
2023-05-25T04:29:23.160Z,99149.44
2023-05-25T04:31:51.481Z,99156.13
2023-05-25T04:34:18.058Z,99162.97
2023-05-25T04:36:44.790Z,99152.75
2023-05-25T04:39:11.382Z,99157.63
2023-05-25T04:41:37.923Z,99155.88
2023-05-25T04:44:09.846Z,99163.19
2023-05-25T04:46:37.547Z,99161.75
2023-05-25T04:49:05.608Z,99161.09
2023-05-25T04:51:32.527Z,99143.66
2023-05-25T04:53:59.621Z,99152.00
2023-05-25T04:56:26.800Z,99155.28
2023-05-25T04:58:53.491Z,99154.28
2023-05-25T05:01:20.630Z,99166.84
2023-05-25T05:03:47.240Z,99165.72
2023-05-25T05:06:13.825Z,99172.25
2023-05-25T05:08:41.700Z,99169.97
2023-05-25T05:11:08.313Z,99169.63
2023-05-25T05:13:34.831Z,99166.25
2023-05-25T05:16:01.356Z,99160.69
2023-05-25T05:18:29.152Z,99174.19
2023-05-25T05:20:55.738Z,99169.97
2023-05-25T05:23:22.290Z,99172.75
2023-05-25T05:25:48.803Z,99176.00
2023-05-25T05:28:15.333Z,99172.56
2023-05-25T05:30:41.860Z,99185.63
2023-05-25T05:33:08.469Z,99167.53
2023-05-25T05:35:34.993Z,99177.16
2023-05-25T05:38:01.525Z,99186.13
2023-05-25T05:40:28.053Z,99181.88
2023-05-25T05:42:54.809Z,99192.00
2023-05-25T05:45:21.354Z,99183.34
2023-05-25T05:47:47.941Z,99191.66
2023-05-25T05:50:14.493Z,99183.16
2023-05-25T05:52:41.001Z,99190.69
2023-05-25T05:55:07.813Z,99186.28
2023-05-25T05:57:34.366Z,99199.34
2023-05-25T06:00:00.904Z,99194.25
2023-05-25T06:02:27.501Z,99201.13
2023-05-25T06:04:54.135Z,99194.75
2023-05-25T06:07:21.288Z,99199.16
2023-05-25T06:09:47.821Z,99203.56
2023-05-25T06:12:14.426Z,99199.81
2023-05-25T06:14:40.997Z,99208.94
2023-05-25T06:17:07.758Z,99210.09
2023-05-25T06:19:34.480Z,99212.69
2023-05-25T06:22:00.997Z,99218.09
2023-05-25T06:24:27.578Z,99231.09
2023-05-25T06:26:54.101Z,99221.50
2023-05-25T06:29:20.729Z,99225.22
2023-05-25T06:31:47.326Z,99233.41
2023-05-25T06:34:14.031Z,99241.38
2023-05-25T06:36:41.747Z,99238.91
2023-05-25T06:39:08.550Z,99236.13
2023-05-25T06:41:37.974Z,99239.38
2023-05-25T06:44:04.499Z,99249.53
2023-05-25T06:46:31.864Z,99254.78
2023-05-25T06:49:02.032Z,99251.00
2023-05-25T06:51:28.764Z,99251.34
2023-05-25T06:53:55.696Z,99261.91
2023-05-25T06:56:22.904Z,99256.69
2023-05-25T06:58:49.789Z,99255.88
2023-05-25T07:01:16.583Z,99263.59
2023-05-25T07:03:43.350Z,99266.19
2023-05-25T07:06:12.062Z,99265.56
2023-05-25T07:08:38.669Z,99252.16
2023-05-25T07:11:05.246Z,99251.03
2023-05-25T07:13:31.774Z,99255.25
2023-05-25T07:15:58.320Z,99253.94
2023-05-25T07:18:24.854Z,99253.31
2023-05-25T07:20:51.482Z,99255.09
2023-05-25T07:23:18.012Z,99261.81
2023-05-25T07:25:44.894Z,99267.50
2023-05-25T07:28:11.628Z,99261.47
2023-05-25T07:30:38.193Z,99270.13
2023-05-25T07:33:04.741Z,99268.94
2023-05-25T07:35:31.462Z,99269.16
2023-05-25T07:38:02.365Z,99259.69
2023-05-25T07:40:28.900Z,99270.13
2023-05-25T07:42:55.444Z,99268.50
2023-05-25T07:45:22.034Z,99268.00
2023-05-25T07:47:48.669Z,99277.13
2023-05-25T07:50:15.287Z,99282.84
2023-05-25T07:52:41.915Z,99275.66
2023-05-25T07:55:09.004Z,99278.59
2023-05-25T07:57:35.736Z,99277.78
2023-05-25T08:00:02.274Z,99279.28
2023-05-25T08:02:28.916Z,99280.25
2023-05-25T08:04:56.176Z,99272.88
2023-05-25T08:07:24.854Z,99273.56
2023-05-25T08:09:51.354Z,99273.63
2023-05-25T08:14:47.295Z,99285.09
2023-05-25T08:17:13.965Z,99280.75
2023-05-25T08:19:40.615Z,99278.66
2023-05-25T08:22:07.156Z,99287.78
2023-05-25T08:24:33.673Z,99287.78
2023-05-25T08:27:01.124Z,99285.13
2023-05-25T08:29:28.036Z,99289.03
2023-05-25T08:31:54.550Z,99292.78
2023-05-25T08:34:21.128Z,99275.41
2023-05-25T08:36:47.753Z,99291.16
2023-05-25T08:39:14.497Z,99294.31
2023-05-25T08:41:42.633Z,99295.00
2023-05-25T08:44:10.095Z,99293.44
2023-05-25T08:46:36.849Z,99295.41
2023-05-25T08:49:13.412Z,99292.38
2023-05-25T08:51:49.518Z,99304.22
2023-05-25T08:54:17.941Z,99308.38
2023-05-25T08:56:52.676Z,99306.84
2023-05-25T08:59:46.771Z,99307.06
2023-05-25T09:02:25.345Z,99313.97
2023-05-25T09:04:51.898Z,99302.69
2023-05-25T09:07:18.425Z,99294.25
2023-05-25T09:09:44.945Z,99306.69
2023-05-25T09:12:11.592Z,99310.09
2023-05-25T09:14:39.823Z,99314.44
2023-05-25T09:17:06.389Z,99301.66
2023-05-25T09:19:33.080Z,99303.47
2023-05-25T09:22:14.102Z,99311.31
2023-05-25T09:24:44.161Z,99307.03
2023-05-25T09:27:11.261Z,99311.69
2023-05-25T09:29:37.867Z,99312.28
2023-05-25T09:32:05.829Z,99302.66
2023-05-25T09:34:35.361Z,99309.16
2023-05-25T09:37:15.212Z,99306.47
2023-05-25T09:39:42.554Z,99313.56
2023-05-25T09:42:10.053Z,99316.56
2023-05-25T09:44:36.649Z,99316.44
2023-05-25T09:47:03.718Z,99318.75
2023-05-25T09:49:30.290Z,99324.97
2023-05-25T09:51:56.793Z,99329.44
2023-05-25T09:54:23.326Z,99325.94
2023-05-25T09:56:49.828Z,99331.16
2023-05-25T09:59:16.356Z,99317.28
2023-05-25T10:01:44.303Z,99320.38
2023-05-25T10:04:11.039Z,99321.09
2023-05-25T10:06:38.761Z,99326.91
2023-05-25T10:09:05.614Z,99319.69
2023-05-25T10:11:32.140Z,99329.59
2023-05-25T10:14:00.470Z,99334.16
2023-05-25T10:16:29.415Z,99334.66
2023-05-25T10:19:08.295Z,99334.09
2023-05-25T10:21:34.915Z,99335.63
2023-05-25T10:24:04.777Z,99340.69
2023-05-25T10:26:33.506Z,99337.88
2023-05-25T10:29:04.501Z,99340.22
2023-05-25T10:31:33.882Z,99332.47
2023-05-25T10:34:00.956Z,99327.44
2023-05-25T10:36:27.770Z,99334.03
2023-05-25T10:38:54.332Z,99338.75
2023-05-25T10:41:21.501Z,99329.34
2023-05-25T10:43:48.019Z,99333.56
2023-05-25T10:46:15.229Z,99327.72
2023-05-25T10:48:49.565Z,99328.31
2023-05-25T10:51:16.178Z,99333.13
2023-05-25T10:53:46.787Z,99341.63
2023-05-25T10:56:14.246Z,99350.00
2023-05-25T10:58:41.772Z,99352.88
2023-05-25T11:01:09.950Z,99355.59
2023-05-25T11:03:50.681Z,99341.44
2023-05-25T11:06:18.217Z,99348.22
2023-05-25T11:08:51.462Z,99349.56
2023-05-25T11:11:18.050Z,99344.69
2023-05-25T11:13:45.795Z,99346.25
2023-05-25T11:16:24.202Z,99346.66
2023-05-25T11:18:55.220Z,99351.72
2023-05-25T11:21:27.916Z,99351.94
2023-05-25T11:23:57.709Z,99350.44
2023-05-25T11:26:27.961Z,99343.50
2023-05-25T11:28:54.900Z,99348.00
2023-05-25T11:31:23.559Z,99342.13
2023-05-25T11:33:51.811Z,99337.28
2023-05-25T11:36:20.483Z,99329.16
2023-05-25T11:38:53.173Z,99327.91
2023-05-25T11:41:29.974Z,99322.94
2023-05-25T11:43:56.989Z,99324.13
2023-05-25T11:46:23.637Z,99321.09
2023-05-25T11:48:53.587Z,99320.69
2023-05-25T11:51:28.030Z,99327.19
2023-05-25T11:53:54.566Z,99319.97
2023-05-25T11:56:34.212Z,99326.91
2023-05-25T11:59:01.397Z,99308.72
2023-05-25T12:01:27.908Z,99312.22
2023-05-25T12:03:57.582Z,99319.94
2023-05-25T12:06:27.920Z,99331.22
2023-05-25T12:08:54.891Z,99326.66
2023-05-25T12:11:47.800Z,99317.59
2023-05-25T12:14:14.595Z,99326.50
2023-05-25T12:16:41.399Z,99323.06
2023-05-25T12:19:08.232Z,99322.50
2023-05-25T12:21:35.672Z,99317.34
2023-05-25T12:24:03.764Z,99321.31
2023-05-25T12:26:30.289Z,99315.56
2023-05-25T12:29:00.697Z,99322.19
2023-05-25T12:31:28.851Z,99314.00
2023-05-25T12:34:16.116Z,99320.09
2023-05-25T12:36:48.054Z,99315.81
2023-05-25T12:39:31.543Z,99303.59
2023-05-25T12:41:59.422Z,99309.28
2023-05-25T12:44:31.528Z,99307.50
2023-05-25T12:47:12.069Z,99310.00
2023-05-25T12:49:38.634Z,99313.06
2023-05-25T12:52:05.472Z,99308.09
2023-05-25T12:54:45.743Z,99318.97
2023-05-25T12:57:19.116Z,99312.25
2023-05-25T12:59:46.594Z,99316.41
2023-05-25T13:02:14.068Z,99319.22
2023-05-25T13:04:41.267Z,99324.91
2023-05-25T13:07:08.490Z,99318.88
2023-05-25T13:09:35.168Z,99311.84
2023-05-25T13:12:02.724Z,99303.72
2023-05-25T13:14:29.565Z,99303.81
2023-05-25T13:16:56.595Z,99300.78
2023-05-25T13:19:24.370Z,99300.44
2023-05-25T13:21:51.856Z,99306.31
2023-05-25T13:24:19.562Z,99303.69
2023-05-25T13:26:48.167Z,99303.44
2023-05-25T13:29:16.502Z,99295.63
2023-05-25T13:31:43.585Z,99303.81
2023-05-25T13:34:10.152Z,99314.09
2023-05-25T13:36:36.675Z,99308.34
2023-05-25T13:39:05.198Z,99302.31
2023-05-25T13:41:31.788Z,99301.69
2023-05-25T13:43:58.393Z,99299.31
2023-05-25T13:46:34.331Z,99297.69
2023-05-25T13:49:02.555Z,99293.13
2023-05-25T13:51:29.131Z,99296.53
2023-05-25T13:53:55.671Z,99284.97
2023-05-25T13:56:22.527Z,99293.06
2023-05-25T13:58:49.159Z,99289.56
2023-05-25T14:01:15.765Z,99287.25
2023-05-25T14:03:42.590Z,99286.56
2023-05-25T14:06:09.345Z,99291.75
2023-05-25T14:08:35.954Z,99289.66
2023-05-25T14:11:02.973Z,99281.72
2023-05-25T14:13:29.640Z,99280.72
2023-05-25T14:15:56.265Z,99278.53
2023-05-25T14:18:22.858Z,99266.56
2023-05-25T14:20:49.546Z,99262.09
2023-05-25T14:23:18.187Z,99275.19
2023-05-25T14:25:46.291Z,99276.16
2023-05-25T14:28:13.133Z,99268.34
2023-05-25T14:30:39.670Z,99275.88
2023-05-25T14:33:06.292Z,99272.06
2023-05-25T14:35:32.813Z,99282.63
2023-05-25T14:37:59.441Z,99281.09
2023-05-25T14:40:25.985Z,99280.91
2023-05-25T14:42:55.353Z,99279.19
2023-05-25T14:45:21.954Z,99284.97
2023-05-25T14:47:48.595Z,99287.50
2023-05-25T14:50:15.152Z,99284.06
2023-05-25T14:52:42.078Z,99282.13
2023-05-25T14:55:11.605Z,99274.34
2023-05-25T14:57:38.103Z,99277.63
2023-05-25T15:00:04.922Z,99276.56
2023-05-25T15:02:31.812Z,99281.09
2023-05-25T15:04:58.620Z,99284.06
2023-05-25T15:07:25.626Z,99280.84
2023-05-25T15:09:52.391Z,99280.63
2023-05-25T15:12:18.921Z,99275.59
2023-05-25T15:14:45.453Z,99282.00
2023-05-25T15:17:11.967Z,99279.56
2023-05-25T15:19:38.498Z,99280.63
2023-05-25T15:22:05.018Z,99269.34
2023-05-25T15:24:31.577Z,99273.31
2023-05-25T15:26:58.155Z,99259.25
2023-05-25T15:29:24.784Z,99257.78
2023-05-25T15:31:52.727Z,99255.50
2023-05-25T15:34:20.046Z,99266.50
2023-05-25T15:36:46.610Z,99269.47
2023-05-25T15:39:14.602Z,99258.16
2023-05-25T15:41:41.516Z,99250.38
2023-05-25T15:44:12.228Z,99251.81
2023-05-25T15:46:40.085Z,99244.66
2023-05-25T15:49:13.164Z,99254.25
2023-05-25T15:51:42.708Z,99241.25
2023-05-25T15:54:14.705Z,99245.63
2023-05-25T15:56:41.715Z,99244.50
2023-05-25T15:59:08.298Z,99251.38
2023-05-25T16:01:36.730Z,99253.88
2023-05-25T16:04:04.063Z,99246.50
2023-05-25T16:06:30.956Z,99255.66
2023-05-25T16:08:58.741Z,99244.66
2023-05-25T16:11:26.912Z,99248.13
2023-05-25T16:13:53.560Z,99244.44
2023-05-25T16:16:20.145Z,99244.34
2023-05-25T16:18:46.853Z,99245.19
2023-05-25T16:21:13.427Z,99237.09
2023-05-25T16:23:40.011Z,99235.06
2023-05-25T16:26:09.921Z,99230.75
2023-05-25T16:28:37.010Z,99237.25
2023-05-25T16:31:07.451Z,99246.94
2023-05-25T16:33:34.012Z,99240.69
2023-05-25T16:36:00.569Z,99237.31
2023-05-25T16:38:27.138Z,99247.28
2023-05-25T16:40:54.068Z,99243.31
2023-05-25T16:43:21.964Z,99238.47
2023-05-25T16:45:48.686Z,99235.50
2023-05-25T16:48:15.518Z,99238.22
2023-05-25T16:50:42.069Z,99239.00
2023-05-25T16:53:08.592Z,99240.84
2023-05-25T16:55:35.150Z,99234.94
2023-05-25T16:58:01.744Z,99225.19
2023-05-25T17:00:28.251Z,99227.72
2023-05-25T17:02:54.849Z,99231.53
2023-05-25T17:05:21.426Z,99232.47
2023-05-25T17:07:47.989Z,99239.34
2023-05-25T17:10:14.571Z,99230.47
2023-05-25T17:12:41.108Z,99225.53
2023-05-25T17:15:08.203Z,99221.44
2023-05-25T17:17:34.792Z,99223.19
2023-05-25T17:20:01.348Z,99222.22
2023-05-25T17:22:27.909Z,99224.34
2023-05-25T17:24:54.409Z,99227.91
2023-05-25T17:27:20.912Z,99223.72
2023-05-25T17:29:47.426Z,99227.88
2023-05-25T17:32:14.009Z,99216.69
2023-05-25T17:34:40.547Z,99225.69
2023-05-25T17:37:07.168Z,99230.22
2023-05-25T17:39:33.717Z,99231.03
2023-05-25T17:42:01.418Z,99233.66
2023-05-25T17:44:27.972Z,99226.44
2023-05-25T17:46:57.422Z,99223.28
2023-05-25T17:49:23.955Z,99232.47
2023-05-25T17:51:50.556Z,99235.09
2023-05-25T17:54:19.785Z,99237.69
2023-05-25T17:56:46.649Z,99224.00
2023-05-25T17:59:13.254Z,99236.66
2023-05-25T18:01:40.714Z,99234.72
2023-05-25T18:04:07.419Z,99230.75
2023-05-25T18:06:34.107Z,99231.19
2023-05-25T18:09:00.690Z,99225.53
2023-05-25T18:11:28.543Z,99228.78
2023-05-25T18:13:55.067Z,99228.34
2023-05-25T18:16:21.622Z,99233.78
2023-05-25T18:18:48.201Z,99226.75
2023-05-25T18:21:14.716Z,99232.59
2023-05-25T18:23:41.238Z,99240.03
2023-05-25T18:26:08.014Z,99229.97
2023-05-25T18:28:34.547Z,99236.34
2023-05-25T18:31:01.176Z,99234.50
2023-05-25T18:33:27.716Z,99239.16
2023-05-25T18:35:54.301Z,99237.41
2023-05-25T18:38:20.793Z,99248.28
2023-05-25T18:40:47.329Z,99240.09
2023-05-25T18:43:13.835Z,99240.09
2023-05-25T18:45:40.646Z,99247.19
2023-05-25T18:48:07.369Z,99245.16
2023-05-25T18:50:34.800Z,99242.72
2023-05-25T18:53:02.513Z,99242.25
2023-05-25T18:55:30.129Z,99238.81
2023-05-25T18:57:57.352Z,99246.03
2023-05-25T19:00:23.919Z,99244.69
2023-05-25T19:02:50.571Z,99243.41
2023-05-25T19:05:18.430Z,99246.41
2023-05-25T19:07:58.150Z,99254.09
2023-05-25T19:10:25.892Z,99256.31
2023-05-25T19:12:52.431Z,99255.97
2023-05-25T19:15:18.958Z,99255.16
2023-05-25T19:17:46.654Z,99262.94
2023-05-25T19:20:13.290Z,99255.72
2023-05-25T19:22:40.405Z,99259.91
2023-05-25T19:25:07.737Z,99258.31
2023-05-25T19:27:34.258Z,99258.53
2023-05-25T19:30:01.323Z,99260.59
2023-05-25T19:32:27.951Z,99256.88
2023-05-25T19:34:54.492Z,99261.47
2023-05-25T19:37:21.101Z,99274.03
2023-05-25T19:39:47.991Z,99268.75
2023-05-25T19:42:14.535Z,99267.59
2023-05-25T19:44:41.504Z,99271.84
2023-05-25T19:47:08.068Z,99270.94
2023-05-25T19:49:34.578Z,99269.25
2023-05-25T19:52:01.086Z,99275.63
2023-05-25T19:54:27.636Z,99280.81
2023-05-25T19:56:54.192Z,99286.59
2023-05-25T19:59:21.702Z,99280.13
2023-05-25T20:01:48.423Z,99280.59
2023-05-25T20:04:15.121Z,99274.03
2023-05-25T20:06:41.642Z,99270.09
2023-05-25T20:09:12.396Z,99272.69
2023-05-25T20:11:38.949Z,99270.16
2023-05-25T20:14:07.291Z,99275.13
2023-05-25T20:16:33.956Z,99271.91
2023-05-25T20:19:00.717Z,99272.69
2023-05-25T20:21:28.467Z,99281.41
2023-05-25T20:23:55.425Z,99289.25
2023-05-25T20:26:21.972Z,99277.09
2023-05-25T20:28:48.527Z,99281.66
2023-05-25T20:31:15.105Z,99283.13
2023-05-25T20:33:41.711Z,99275.28
2023-05-25T20:36:08.357Z,99277.25
2023-05-25T20:38:34.874Z,99277.03
2023-05-25T20:41:01.389Z,99282.31
2023-05-25T20:43:28.158Z,99281.41
2023-05-25T20:45:54.700Z,99282.72
2023-05-25T20:48:21.339Z,99283.22
2023-05-25T20:50:47.869Z,99294.31
2023-05-25T20:53:15.580Z,99288.28
2023-05-25T20:55:42.281Z,99288.16
2023-05-25T20:58:08.927Z,99283.09
2023-05-25T21:00:35.656Z,99283.06
2023-05-25T21:03:02.323Z,99284.91
2023-05-25T21:05:28.961Z,99296.19
2023-05-25T21:07:55.485Z,99289.16
2023-05-25T21:10:22.208Z,99292.91
2023-05-25T21:12:48.742Z,99291.97
2023-05-25T21:15:15.321Z,99290.81
2023-05-25T21:17:41.863Z,99298.34
2023-05-25T21:20:08.706Z,99297.16
2023-05-25T21:22:35.419Z,99300.94
2023-05-25T21:25:01.956Z,99306.00
2023-05-25T21:27:28.453Z,99309.78
2023-05-25T21:29:54.955Z,99295.09
2023-05-25T21:32:21.540Z,99317.13
2023-05-25T21:34:48.125Z,99307.66
2023-05-25T21:37:14.657Z,99305.69
2023-05-25T21:39:41.221Z,99314.66
2023-05-25T21:42:08.831Z,99312.38
2023-05-25T21:44:35.337Z,99311.41
2023-05-25T21:47:01.945Z,99302.28
2023-05-25T21:49:28.494Z,99307.47
2023-05-25T21:51:55.010Z,99301.59
2023-05-25T21:54:21.516Z,99300.94
2023-05-25T21:56:48.033Z,99303.06
2023-05-25T21:59:14.572Z,99304.53
2023-05-25T22:01:41.401Z,99304.06
2023-05-25T22:04:07.965Z,99304.69
2023-05-25T22:06:34.502Z,99310.09
2023-05-25T22:09:01.122Z,99304.69
2023-05-25T22:11:27.711Z,99313.69
2023-05-25T22:13:54.216Z,99313.66
2023-05-25T22:16:21.025Z,99319.34
2023-05-25T22:18:47.570Z,99320.66
2023-05-25T22:21:14.615Z,99319.69
2023-05-25T22:23:41.400Z,99317.59
2023-05-25T22:26:07.985Z,99312.38
2023-05-25T22:28:34.524Z,99323.28
2023-05-25T22:31:01.131Z,99320.16
2023-05-25T22:33:27.703Z,99319.22
2023-05-25T22:35:54.257Z,99320.50
2023-05-25T22:38:20.781Z,99316.91
2023-05-25T22:40:47.717Z,99322.59
2023-05-25T22:43:14.663Z,99327.94
2023-05-25T22:45:41.261Z,99320.59
2023-05-25T22:48:08.089Z,99329.72
2023-05-25T22:50:34.852Z,99325.63
2023-05-25T22:53:01.503Z,99327.72
2023-05-25T22:55:28.013Z,99315.31
2023-05-25T22:57:54.534Z,99335.81
2023-05-25T23:00:21.317Z,99325.38
2023-05-25T23:02:47.970Z,99331.66
2023-05-25T23:05:14.575Z,99327.75
2023-05-25T23:07:41.423Z,99334.88
2023-05-25T23:10:08.402Z,99332.78
2023-05-25T23:12:34.941Z,99336.63
2023-05-25T23:15:02.582Z,99337.50
2023-05-25T23:17:29.170Z,99332.91
2023-05-25T23:19:55.807Z,99340.28
2023-05-25T23:22:22.346Z,99341.22
2023-05-25T23:24:48.871Z,99329.19
2023-05-25T23:27:15.420Z,99345.97
2023-05-25T23:29:41.971Z,99334.22
2023-05-25T23:32:08.581Z,99334.78
2023-05-25T23:34:35.131Z,99336.13
2023-05-25T23:37:03.302Z,99336.44
2023-05-25T23:39:30.957Z,99333.03
2023-05-25T23:41:57.470Z,99331.91
2023-05-25T23:44:24.010Z,99328.94
2023-05-25T23:46:50.729Z,99333.00
2023-05-25T23:49:17.247Z,99333.31
2023-05-25T23:51:43.776Z,99323.81
2023-05-25T23:54:10.391Z,99331.28
2023-05-25T23:56:36.886Z,99328.84
2023-05-25T23:59:04.113Z,99337.63
